Time;durP1;ratioP1;P1;durP2;ratioP2;P2;SDS_P1;SDS_P2;PMS_P1;PMS_P2;Temp;Humidity;BMP_temperature;BMP_pressure;BME280_temperature;BME280_humidity;BME280_pressure;Samples;Min_cycle;Max_cycle;Signal;HPM_P1;HPM_P2
2022/06/11 00:01:33;;;;;;;11.38;7.40;;;20.10;66.10;;;;;;5073882;28;20375;-81
2022/06/11 00:04:03;;;;;;;14.85;7.93;;;20.10;66.80;;;;;;5073953;28;20528;-79
2022/06/11 00:06:31;;;;;;;13.05;8.35;;;20.10;66.60;;;;;;5073511;28;20374;-80
2022/06/11 00:08:58;;;;;;;14.57;8.57;;;20.10;67.00;;;;;;5073553;28;20063;-80
2022/06/11 00:11:25;;;;;;;12.20;8.85;;;20.10;66.90;;;;;;5055928;28;20124;-81
2022/06/11 00:13:51;;;;;;;12.05;8.63;;;20.00;67.00;;;;;;5070178;28;20017;-79
2022/06/11 00:16:19;;;;;;;13.88;8.48;;;20.00;67.50;;;;;;5066382;28;20433;-79
2022/06/11 00:18:47;;;;;;;11.07;8.30;;;20.00;67.20;;;;;;5070983;28;20393;-79
2022/06/11 00:21:14;;;;;;;12.10;8.32;;;19.90;67.70;;;;;;5073005;28;20098;-80
2022/06/11 00:23:42;;;;;;;12.57;8.53;;;19.90;68.70;;;;;;5066542;28;20047;-80
2022/06/11 00:26:09;;;;;;;11.90;8.35;;;19.90;68.40;;;;;;5063132;28;20056;-79
2022/06/11 00:28:36;;;;;;;9.93;8.10;;;19.90;68.60;;;;;;5058672;28;20516;-79
2022/06/11 00:31:02;;;;;;;11.93;8.27;;;19.80;68.40;;;;;;5074337;28;20067;-80
2022/06/11 00:33:28;;;;;;;11.63;8.38;;;19.80;68.30;;;;;;5073441;28;20024;-79
2022/06/11 00:35:54;;;;;;;18.30;8.63;;;19.80;68.80;;;;;;5073119;28;20091;-81
2022/06/11 00:38:21;;;;;;;9.85;7.88;;;19.80;69.00;;;;;;5072917;28;20580;-79
2022/06/11 00:40:48;;;;;;;10.98;8.52;;;19.70;69.30;;;;;;5073554;28;20058;-80
2022/06/11 00:43:16;;;;;;;12.82;8.55;;;19.70;69.60;;;;;;5054964;28;20115;-79
2022/06/11 00:45:58;;;;;;;;;;;19.60;69.80;;;;;;5055039;28;20480;-78
2022/06/11 00:48:34;;;;;;;12.07;8.75;;;19.60;69.00;;;;;;5072760;28;19919;-79
2022/06/11 00:51:13;;;;;;;11.02;8.52;;;19.50;70.60;;;;;;5072887;28;20048;-78
2022/06/11 00:54:00;;;;;;;17.42;8.43;;;19.50;71.40;;;;;;5072328;28;20059;-79
2022/06/11 00:56:35;;;;;;;;;;;19.50;71.70;;;;;;5073500;28;20039;-79
2022/06/11 00:59:03;;;;;;;21.85;10.05;;;19.40;70.60;;;;;;5072413;28;19912;-80
2022/06/11 01:01:30;;;;;;;20.02;10.98;;;19.40;72.40;;;;;;5072688;28;20048;-80
2022/06/11 01:03:59;;;;;;;23.45;10.82;;;19.30;73.20;;;;;;5073611;28;20020;-80
2022/06/11 01:06:34;;;;;;;24.63;10.32;;;19.40;73.70;;;;;;5073386;28;20029;-79
2022/06/11 01:09:04;;;;;;;20.83;10.95;;;19.30;74.10;;;;;;5073190;28;20037;-79
2022/06/11 01:11:52;;;;;;;17.35;11.35;;;19.30;74.30;;;;;;5072859;28;20012;-80
2022/06/11 01:14:40;;;;;;;19.20;10.90;;;19.30;74.60;;;;;;5072311;28;20035;-79
2022/06/11 01:17:15;;;;;;;23.38;11.35;;;19.30;74.90;;;;;;5055739;28;20062;-80
2022/06/11 01:19:59;;;;;;;22.55;10.60;;;19.30;75.00;;;;;;5066814;28;20025;-80
2022/06/11 01:22:40;;;;;;;21.65;10.88;;;19.30;75.00;;;;;;5064199;28;20102;-80
2022/06/11 01:25:19;;;;;;;27.20;12.20;;;19.30;75.40;;;;;;5072301;28;20016;-81
2022/06/11 01:27:46;;;;;;;19.42;10.90;;;19.30;75.80;;;;;;5071717;28;20059;-80
2022/06/11 01:30:23;;;;;;;16.45;11.50;;;19.30;76.00;;;;;;5071937;28;20125;-80
2022/06/11 01:33:11;;;;;;;23.77;11.63;;;19.30;75.70;;;;;;5066882;28;20032;-80
2022/06/11 01:35:55;;;;;;;15.82;11.63;;;19.30;75.50;;;;;;5072394;28;20053;-78
2022/06/11 01:38:37;;;;;;;21.60;12.43;;;19.40;76.00;;;;;;5073043;28;20084;-79
2022/06/11 01:41:28;;;;;;;21.70;10.57;;;19.40;75.80;;;;;;5072678;28;20130;-78
2022/06/11 01:44:00;;;;;;;20.65;12.38;;;19.50;75.50;;;;;;5051178;28;20155;-80
2022/06/11 01:46:36;;;;;;;18.98;11.65;;;19.50;75.50;;;;;;5071621;28;20025;-79
2022/06/11 01:49:06;;;;;;;21.10;12.13;;;19.50;75.30;;;;;;5071505;28;20028;-80
2022/06/11 01:51:54;;;;;;;21.45;11.95;;;19.60;75.20;;;;;;5051546;28;20041;-79
2022/06/11 01:54:31;;;;;;;18.63;11.73;;;19.60;75.90;;;;;;5033479;28;20029;-77
2022/06/11 01:57:18;;;;;;;16.63;11.63;;;19.60;75.80;;;;;;5051688;28;20025;-79
2022/06/11 01:59:56;;;;;;;19.75;12.35;;;19.70;76.70;;;;;;5051481;28;20096;-79
2022/06/11 02:02:40;;;;;;;23.77;12.18;;;19.80;75.90;;;;;;5051932;28;20029;-78
2022/06/11 02:05:20;;;;;;;21.40;11.82;;;19.80;76.10;;;;;;5051213;28;20434;-79
2022/06/11 02:08:10;;;;;;;18.90;13.13;;;19.80;75.20;;;;;;5051159;28;20037;-78
2022/06/11 02:10:46;;;;;;;22.25;12.55;;;19.90;75.40;;;;;;5042536;28;20032;-80
2022/06/11 02:13:37;;;;;;;27.05;13.50;;;19.90;75.90;;;;;;5051261;28;20025;-80
2022/06/11 02:16:19;;;;;;;17.50;12.05;;;20.00;75.60;;;;;;5052637;28;20025;-81
2022/06/11 02:18:47;;;;;;;17.80;10.88;;;20.10;75.00;;;;;;5057847;28;20096;-80
2022/06/11 02:21:16;;;;;;;20.45;11.00;;;20.10;74.90;;;;;;5046751;28;20114;-80
2022/06/11 02:23:55;;;;;;;22.00;11.95;;;20.20;74.50;;;;;;5049358;28;20040;-80
2022/06/11 02:26:30;;;;;;;16.90;9.60;;;20.20;73.70;;;;;;5054353;28;20031;-80
2022/06/11 02:28:58;;;;;;;18.27;11.15;;;20.20;71.40;;;;;;5055358;28;20486;-79
2022/06/11 02:31:30;;;;;;;9.98;8.95;;;20.30;73.60;;;;;;5034575;28;20017;-79
2022/06/11 02:33:56;;;;;;;12.27;8.32;;;20.30;70.30;;;;;;5054017;28;20073;-78
2022/06/11 02:36:27;;;;;;;12.25;8.45;;;20.30;68.90;;;;;;5053629;28;20013;-78
2022/06/11 02:38:54;;;;;;;13.65;8.07;;;20.50;68.20;;;;;;5054795;28;20040;-78
2022/06/11 02:41:25;;;;;;;12.85;9.15;;;20.50;67.70;;;;;;5055176;28;20024;-79
2022/06/11 02:43:52;;;;;;;10.80;7.85;;;20.60;68.10;;;;;;5055332;28;20021;-78
2022/06/11 02:49:04;;;;;;;11.20;6.72;;;20.70;66.10;;;;;;5054419;28;20052;-77
2022/06/11 02:51:31;;;;;;;9.93;6.18;;;20.80;65.40;;;;;;5076815;28;20032;-79
2022/06/11 02:53:57;;;;;;;10.15;6.32;;;20.90;65.50;;;;;;5094888;28;20063;-79
2022/06/11 02:56:23;;;;;;;10.38;6.45;;;21.00;65.60;;;;;;5094830;28;20385;-77
2022/06/11 02:58:49;;;;;;;9.90;7.00;;;21.10;64.20;;;;;;5076724;28;20020;-78
2022/06/11 03:01:16;;;;;;;9.55;6.60;;;21.20;63.50;;;;;;5094667;28;20481;-78
2022/06/11 03:03:42;;;;;;;;;;;21.30;63.30;;;;;;5095517;28;20024;-79
2022/06/11 03:06:08;;;;;;;7.57;6.88;;;21.40;63.80;;;;;;5076544;28;19969;-78
2022/06/11 03:08:34;;;;;;;9.75;7.07;;;21.50;63.00;;;;;;5094471;28;20032;-79
2022/06/11 03:11:00;;;;;;;13.63;7.70;;;21.70;62.10;;;;;;5076320;28;20028;-79
2022/06/11 03:13:28;;;;;;;11.82;7.63;;;21.90;61.70;;;;;;5094659;28;20031;-78
2022/06/11 03:15:54;;;;;;;17.92;6.85;;;22.10;60.90;;;;;;5093427;28;20016;-80
2022/06/11 03:18:22;;;;;;;11.75;7.68;;;22.10;61.00;;;;;;5094090;28;20020;-77
2022/06/11 03:20:48;;;;;;;11.30;7.13;;;22.10;60.80;;;;;;5090527;28;20031;-78
2022/06/11 03:23:14;;;;;;;16.88;7.38;;;;;;;;;;5089985;28;20390;-78
2022/06/11 03:25:40;;;;;;;9.27;6.55;;;22.20;59.70;;;;;;5094538;28;20024;-79
2022/06/11 03:28:12;;;;;;;11.25;6.95;;;22.30;60.20;;;;;;5094180;28;20036;-80
2022/06/11 03:30:38;;;;;;;12.55;7.22;;;22.30;60.50;;;;;;5097291;28;20016;-78
2022/06/11 03:33:05;;;;;;;8.85;6.72;;;22.30;60.30;;;;;;5094614;28;20030;-77
2022/06/11 03:35:32;;;;;;;8.40;7.47;;;22.40;60.60;;;;;;5093453;28;20462;-78
2022/06/11 03:37:58;;;;;;;13.60;7.25;;;22.30;60.00;;;;;;5100457;28;20035;-79
2022/06/11 03:40:24;;;;;;;12.65;7.90;;;22.30;60.40;;;;;;5094046;28;20020;-78
2022/06/11 03:42:50;;;;;;;17.48;7.38;;;22.40;60.30;;;;;;5094089;28;20107;-79
2022/06/11 03:45:17;;;;;;;12.02;7.30;;;22.40;60.40;;;;;;5094197;28;20473;-77
2022/06/11 03:47:43;;;;;;;18.00;7.95;;;22.50;60.20;;;;;;5088974;28;20071;-78
2022/06/11 03:50:18;;;;;;;10.65;7.65;;;22.50;59.70;;;;;;5093937;28;20393;-79
2022/06/11 03:52:45;;;;;;;10.68;7.82;;;22.60;59.50;;;;;;5093388;28;20063;-79
2022/06/11 03:55:11;;;;;;;7.95;7.15;;;22.60;59.20;;;;;;5093815;28;20032;-80
2022/06/11 03:57:37;;;;;;;12.05;7.35;;;22.60;59.00;;;;;;5093979;28;20061;-80
2022/06/11 04:00:06;;;;;;;11.30;7.05;;;22.70;59.30;;;;;;5075889;28;20051;-79
2022/06/11 04:02:32;;;;;;;10.90;7.20;;;22.80;59.20;;;;;;5094144;28;20815;-78
2022/06/11 04:04:58;;;;;;;8.70;7.30;;;22.90;59.10;;;;;;5094649;28;20102;-78
2022/06/11 04:07:24;;;;;;;11.35;7.15;;;23.00;58.60;;;;;;5094560;28;20035;-79
2022/06/11 04:09:50;;;;;;;10.68;6.97;;;23.00;58.40;;;;;;5094069;28;20024;-79
2022/06/11 04:12:16;;;;;;;8.10;5.72;;;23.10;58.30;;;;;;5094194;28;20441;-80
2022/06/11 04:14:45;;;;;;;8.85;6.78;;;23.20;57.80;;;;;;5093629;28;20013;-80
2022/06/11 04:17:15;;;;;;;5.72;5.13;;;23.20;57.30;;;;;;5088965;28;20020;-81
2022/06/11 04:19:43;;;;;;;6.43;4.35;;;23.30;55.70;;;;;;5071962;28;20016;-79
2022/06/11 04:22:09;;;;;;;5.30;4.50;;;23.30;55.20;;;;;;5092856;28;20107;-79
2022/06/11 04:24:35;;;;;;;8.55;5.70;;;23.30;55.00;;;;;;5071571;28;20025;-80
2022/06/11 04:27:04;;;;;;;6.97;5.65;;;23.40;55.40;;;;;;5086017;28;20030;-81
2022/06/11 04:29:33;;;;;;;7.57;6.75;;;23.50;55.40;;;;;;5093310;28;20016;-79
2022/06/11 04:32:01;;;;;;;7.78;5.97;;;23.70;55.40;;;;;;5093965;28;20027;-80
2022/06/11 04:34:28;;;;;;;8.50;5.88;;;23.80;55.50;;;;;;5099056;28;20032;-81
2022/06/11 04:36:55;;;;;;;9.05;5.95;;;23.90;55.50;;;;;;5099978;28;20068;-79
2022/06/11 04:39:24;;;;;;;8.73;6.00;;;24.00;55.40;;;;;;5097558;28;20032;-81
2022/06/11 04:41:51;;;;;;;8.73;5.80;;;24.00;55.30;;;;;;5082068;28;20272;-80
2022/06/11 04:44:17;;;;;;;11.57;5.63;;;24.00;55.10;;;;;;5095445;28;20077;-80
2022/06/11 04:46:43;;;;;;;8.68;5.43;;;24.10;54.70;;;;;;5094719;28;20268;-80
2022/06/11 04:49:10;;;;;;;10.40;5.30;;;24.20;54.30;;;;;;5094391;28;20032;-80
2022/06/11 04:51:36;;;;;;;7.47;5.10;;;24.30;54.60;;;;;;5096265;28;20036;-81
2022/06/11 04:54:02;;;;;;;8.45;5.07;;;24.30;53.40;;;;;;5096404;28;20023;-79
2022/06/11 04:56:29;;;;;;;5.53;5.03;;;24.40;52.60;;;;;;5098480;28;20350;-81
2022/06/11 04:58:56;;;;;;;6.15;3.90;;;24.40;52.20;;;;;;5078214;28;20039;-81
2022/06/11 05:01:23;;;;;;;6.68;4.75;;;24.40;52.10;;;;;;5093650;28;20016;-80
2022/06/11 05:03:49;;;;;;;9.13;6.85;;;24.40;51.90;;;;;;5082436;28;20041;-79
2022/06/11 05:06:17;;;;;;;6.65;5.30;;;24.40;50.90;;;;;;5087078;28;20016;-80
2022/06/11 05:08:43;;;;;;;6.05;4.60;;;24.40;51.60;;;;;;5092351;28;20119;-80
2022/06/11 05:11:10;;;;;;;6.68;3.70;;;24.60;50.80;;;;;;5092535;28;20047;-79
2022/06/11 05:13:36;;;;;;;9.43;4.80;;;25.20;49.80;;;;;;5074216;28;20031;-80
2022/06/11 05:16:03;;;;;;;5.13;4.55;;;;;;;;;;5089830;28;20060;-79
2022/06/11 05:18:30;;;;;;;4.20;3.67;;;27.00;46.30;;;;;;5090082;28;20084;-79
2022/06/11 05:20:56;;;;;;;4.50;4.10;;;27.90;45.80;;;;;;5059048;28;20031;-79
2022/06/11 05:23:22;;;;;;;7.18;4.53;;;28.70;44.20;;;;;;5074551;28;20028;-79
2022/06/11 05:25:48;;;;;;;4.28;3.88;;;29.20;43.10;;;;;;5092278;28;20381;-80
2022/06/11 05:28:20;;;;;;;4.40;3.53;;;29.90;43.00;;;;;;5092315;28;20081;-80
2022/06/11 05:30:47;;;;;;;13.00;5.57;;;;;;;;;;5079448;28;20008;-80
2022/06/11 05:33:13;;;;;;;7.55;5.55;;;31.00;40.90;;;;;;5092649;28;20085;-80
2022/06/11 05:35:40;;;;;;;10.80;5.78;;;31.80;40.70;;;;;;5092130;28;20016;-79
2022/06/11 05:38:15;;;;;;;13.70;5.85;;;32.60;39.50;;;;;;5092548;28;20098;-80
2022/06/11 05:40:44;;;;;;;6.87;5.13;;;33.20;39.00;;;;;;5074044;28;20080;-80
2022/06/11 05:43:11;;;;;;;7.07;4.47;;;33.00;37.60;;;;;;5092400;28;20410;-79
2022/06/11 05:45:54;;;;;;;6.43;4.60;;;32.50;37.50;;;;;;5073675;28;20020;-79
2022/06/11 05:48:25;;;;;;;7.78;4.53;;;32.20;38.40;;;;;;5074039;28;20047;-79
2022/06/11 05:50:54;;;;;;;6.03;3.90;;;31.80;38.40;;;;;;5073868;28;20122;-82
2022/06/11 05:53:23;;;;;;;6.70;4.80;;;31.40;38.40;;;;;;5093247;28;20020;-81
2022/06/11 05:55:57;;;;;;;7.88;5.20;;;30.60;39.50;;;;;;5093219;28;20024;-81
2022/06/11 05:58:34;;;;;;;6.75;4.30;;;30.40;40.10;;;;;;5092106;28;20440;-80
2022/06/11 06:01:00;;;;;;;6.63;4.13;;;30.70;40.00;;;;;;5092658;28;20115;-80
2022/06/11 06:03:26;;;;;;;3.88;2.60;;;30.90;39.30;;;;;;5091624;28;20020;-82
2022/06/11 06:05:52;;;;;;;3.45;2.67;;;30.80;38.10;;;;;;5092341;28;20024;-82
2022/06/11 06:08:18;;;;;;;4.00;2.88;;;30.60;38.00;;;;;;5092143;28;20031;-81
2022/06/11 06:10:44;;;;;;;2.63;1.73;;;31.40;38.30;;;;;;5091877;28;20098;-83
2022/06/11 06:15:54;;;;;;;7.57;3.72;;;32.20;35.10;;;;;;5090071;28;20092;-81
2022/06/11 06:18:21;;;;;;;2.42;1.98;;;31.60;36.30;;;;;;5090327;28;20448;-80
2022/06/11 06:20:47;;;;;;;3.88;2.08;;;30.90;36.30;;;;;;5057606;28;20481;-81
2022/06/11 06:23:13;;;;;;;3.85;2.15;;;30.20;37.50;;;;;;5086948;28;20032;-81
2022/06/11 06:25:39;;;;;;;6.43;2.42;;;29.50;38.20;;;;;;5080239;28;20030;-80
2022/06/11 06:28:05;;;;;;;7.22;2.72;;;28.90;38.80;;;;;;5090465;28;20071;-79
2022/06/11 06:30:32;;;;;;;4.57;2.65;;;28.30;39.90;;;;;;5091813;28;20019;-83
2022/06/11 06:32:58;;;;;;;5.85;3.33;;;27.80;40.60;;;;;;5092077;28;20051;-82
2022/06/11 06:35:26;;;;;;;9.55;4.28;;;27.40;41.80;;;;;;5074071;28;20062;-82
2022/06/11 06:37:52;;;;;;;11.98;7.60;;;27.00;43.50;;;;;;5092541;28;20016;-83
2022/06/11 06:40:18;;;;;;;11.45;7.15;;;26.60;47.70;;;;;;5092157;28;20065;-82
2022/06/11 06:42:44;;;;;;;10.38;7.85;;;26.20;49.40;;;;;;5091609;28;20064;-82
2022/06/11 06:45:10;;;;;;;12.18;7.13;;;25.90;50.30;;;;;;5092053;28;20020;-83
2022/06/11 06:47:36;;;;;;;13.23;7.18;;;25.60;50.40;;;;;;5090844;28;20032;-83
2022/06/11 06:50:03;;;;;;;18.30;8.15;;;25.40;51.10;;;;;;5091490;28;20089;-83
2022/06/11 06:52:28;;;;;;;8.30;6.65;;;25.40;51.70;;;;;;5091428;28;20392;-82
2022/06/11 06:54:54;;;;;;;11.95;6.43;;;25.20;51.40;;;;;;5091388;28;20032;-82
2022/06/11 06:57:20;;;;;;;18.85;6.70;;;25.20;51.70;;;;;;5091549;28;20047;-83
2022/06/11 06:59:46;;;;;;;11.10;6.53;;;25.20;51.70;;;;;;5091341;28;20469;-84
2022/06/11 07:02:13;;;;;;;9.40;6.28;;;25.20;52.20;;;;;;5091932;28;20063;-84
2022/06/11 07:04:39;;;;;;;11.35;6.18;;;25.40;51.80;;;;;;5091454;28;20043;-84
2022/06/11 07:07:05;;;;;;;12.30;6.43;;;26.70;50.30;;;;;;5095182;28;20252;-82
2022/06/11 07:09:31;;;;;;;7.35;5.75;;;28.00;47.40;;;;;;5074831;28;20072;-82
2022/06/11 07:11:57;;;;;;;9.50;6.57;;;28.80;46.10;;;;;;5096164;28;20028;-82
2022/06/11 07:14:23;;;;;;;7.95;5.80;;;29.40;44.60;;;;;;5095346;28;20366;-81
2022/06/11 07:16:53;;;;;;;9.73;5.80;;;29.50;44.10;;;;;;5094746;28;20020;-81
2022/06/11 07:19:24;;;;;;;11.75;5.40;;;29.10;44.30;;;;;;5095125;28;20030;-83
2022/06/11 07:21:54;;;;;;;12.98;6.43;;;28.70;44.80;;;;;;5089551;28;20441;-81
2022/06/11 07:24:26;;;;;;;10.88;6.97;;;28.10;45.70;;;;;;5092682;28;20484;-82
2022/06/11 07:26:56;;;;;;;9.82;6.13;;;27.40;46.70;;;;;;5092576;28;20070;-82
2022/06/11 07:29:27;;;;;;;12.38;5.80;;;27.00;47.80;;;;;;5098984;28;20032;-81
2022/06/11 07:32:01;;;;;;;13.55;6.18;;;26.80;48.20;;;;;;5097860;28;20020;-83
2022/06/11 07:34:28;;;;;;;9.68;6.30;;;27.00;47.80;;;;;;5099747;28;20012;-81
2022/06/11 07:36:55;;;;;;;12.00;6.32;;;27.10;47.50;;;;;;5100466;28;20123;-82
2022/06/11 07:39:21;;;;;;;9.65;6.63;;;27.10;47.60;;;;;;5099298;28;20020;-83
2022/06/11 07:41:47;;;;;;;9.93;6.68;;;27.00;47.90;;;;;;5100417;28;20373;-82
2022/06/11 07:44:13;;;;;;;11.57;5.57;;;26.60;47.00;;;;;;5088285;28;20118;-80
2022/06/11 07:46:39;;;;;;;8.23;5.65;;;26.50;47.60;;;;;;5036169;28;20037;-83
2022/06/11 07:49:05;;;;;;;15.68;5.93;;;26.10;48.80;;;;;;5036137;28;20128;-81
2022/06/11 07:51:31;;;;;;;11.45;5.78;;;26.00;49.60;;;;;;5018960;28;20137;-80
2022/06/11 07:53:56;;;;;;;7.90;5.88;;;26.00;49.70;;;;;;5020085;28;20022;-83
2022/06/11 07:56:22;;;;;;;10.52;4.85;;;26.00;48.60;;;;;;5036701;28;20109;-82
2022/06/11 07:58:52;;;;;;;5.22;3.10;;;25.80;47.80;;;;;;5036143;28;20034;-82
2022/06/11 08:01:19;;;;;;;4.57;2.92;;;25.60;46.50;;;;;;5036283;28;20018;-83
2022/06/11 08:03:45;;;;;;;4.50;3.20;;;25.60;47.00;;;;;;5037004;28;20026;-83
2022/06/11 08:06:11;;;;;;;5.68;2.60;;;25.60;46.70;;;;;;5036627;28;20025;-81
2022/06/11 08:08:38;;;;;;;6.28;3.17;;;25.50;46.40;;;;;;5034974;28;20117;-83
2022/06/11 08:11:05;;;;;;;8.00;2.53;;;25.60;46.30;;;;;;5035992;28;20578;-81
2022/06/11 08:13:31;;;;;;;4.78;2.83;;;25.60;46.00;;;;;;5035147;28;20032;-81
2022/06/11 08:15:58;;;;;;;5.20;3.05;;;25.50;46.30;;;;;;5030014;28;20480;-80
2022/06/11 08:18:24;;;;;;;;;;;25.40;47.20;;;;;;5046257;28;20509;-81
2022/06/11 08:20:51;;;;;;;6.03;3.50;;;25.40;47.10;;;;;;5031222;28;19909;-81
2022/06/11 08:23:19;;;;;;;4.32;3.22;;;25.30;47.30;;;;;;5041371;28;20054;-80
2022/06/11 08:25:45;;;;;;;10.10;3.78;;;25.30;47.00;;;;;;5081656;28;20085;-78
2022/06/11 08:28:13;;;;;;;13.95;4.05;;;25.30;47.40;;;;;;5096737;28;20028;-78
2022/06/11 08:30:39;;;;;;;11.50;3.78;;;25.20;48.00;;;;;;5097659;28;20400;-81
2022/06/11 08:33:05;;;;;;;11.38;4.00;;;25.10;48.60;;;;;;5097753;28;20164;-80
2022/06/11 08:35:33;;;;;;;7.68;4.03;;;24.90;49.10;;;;;;5098972;28;20012;-81
2022/06/11 08:38:00;;;;;;;5.78;3.65;;;24.70;49.80;;;;;;5073842;28;20032;-81
2022/06/11 08:40:29;;;;;;;;;;;24.20;51.10;;;;;;5079788;28;20020;-80
2022/06/11 08:43:00;;;;;;;11.52;4.68;;;23.80;51.10;;;;;;5079383;28;19916;-81
2022/06/11 08:45:36;;;;;;;8.68;4.40;;;23.50;55.10;;;;;;5096510;28;20508;-82
2022/06/11 08:48:12;;;;;;;8.40;4.20;;;23.50;58.40;;;;;;5094811;28;20047;-82
2022/06/11 08:50:44;;;;;;;8.60;4.32;;;23.50;58.80;;;;;;5079119;28;20135;-80
2022/06/11 08:53:10;;;;;;;4.47;3.55;;;23.60;58.00;;;;;;5067112;28;20036;-79
2022/06/11 08:55:39;;;;;;;6.63;3.78;;;23.80;55.10;;;;;;5103703;28;20016;-79
2022/06/11 08:58:14;;;;;;;8.73;4.75;;;23.80;55.40;;;;;;5097060;28;20515;-79
2022/06/11 09:01:06;;;;;;;6.05;4.10;;;23.80;57.70;;;;;;5096554;28;20024;-78
2022/06/11 09:04:25;;;;;;;9.27;4.82;;;23.80;57.80;;;;;;5085619;28;20016;-79
2022/06/11 09:07:02;;;;;;;11.75;4.95;;;23.80;57.50;;;;;;5032617;28;20043;-78
2022/06/11 09:09:44;;;;;;;8.90;4.97;;;23.70;58.50;;;;;;5097828;28;20059;-83
2022/06/11 09:12:37;;;;;;;15.90;7.85;;;23.60;59.20;;;;;;5086666;28;20020;-87
2022/06/11 09:15:22;;;;;;;17.98;5.93;;;23.70;60.80;;;;;;5093850;28;20028;-84
2022/06/11 09:17:59;;;;;;;6.45;3.47;;;23.70;60.00;;;;;;5082010;28;20024;-86
2022/06/11 09:21:21;;;;;;;5.55;4.05;;;23.60;57.00;;;;;;5099807;28;20039;-87
2022/06/11 09:24:32;;;;;;;5.93;4.13;;;23.70;58.40;;;;;;5059303;28;20040;-84
2022/06/11 09:27:09;;;;;;;5.38;4.80;;;23.80;59.20;;;;;;5024836;28;20190;-82
2022/06/11 09:29:44;;;;;;;7.45;4.95;;;23.80;58.30;;;;;;5049035;28;20037;-85
2022/06/11 09:32:34;;;;;;;7.30;4.28;;;24.00;57.90;;;;;;5049107;28;20033;-81
2022/06/11 09:35:19;;;;;;;7.53;3.90;;;24.20;57.60;;;;;;5059706;28;20025;-87
2022/06/11 09:37:53;;;;;;;8.30;3.70;;;24.30;57.30;;;;;;5052108;28;20084;-87
2022/06/11 09:40:22;;;;;;;4.35;3.30;;;24.30;58.20;;;;;;5049910;28;20083;-91
2022/06/11 09:43:08;;;;;;;18.10;6.82;;;24.30;56.80;;;;;;5063940;28;20099;-87
2022/06/11 09:45:51;;;;;;;5.75;3.50;;;24.30;56.40;;;;;;5055197;28;20040;-88
2022/06/11 09:48:37;;;;;;;4.40;4.00;;;24.30;55.70;;;;;;5039404;28;20037;-86
2022/06/11 09:51:07;;;;;;;4.53;4.10;;;24.30;54.50;;;;;;5041876;28;20076;-87
2022/06/11 09:54:04;;;;;;;7.10;3.88;;;24.10;54.20;;;;;;5065170;28;20029;-86
2022/06/11 09:56:33;;;;;;;;;;;24.10;54.50;;;;;;5081375;28;20024;-87
2022/06/11 09:59:26;;;;;;;8.52;4.15;;;24.00;54.60;;;;;;5081796;28;20321;-86
2022/06/11 10:02:01;;;;;;;9.82;4.95;;;23.80;55.20;;;;;;5097556;28;20017;-88
2022/06/11 10:04:34;;;;;;;10.57;5.82;;;23.70;55.40;;;;;;5088455;28;20021;-87
2022/06/11 10:07:07;;;;;;;8.15;5.18;;;23.70;57.10;;;;;;5117206;28;20416;-86
2022/06/11 10:09:56;;;;;;;10.35;5.00;;;23.70;56.00;;;;;;5100810;28;20421;-86
2022/06/11 10:12:31;;;;;;;11.80;4.85;;;23.80;55.90;;;;;;5088896;28;20040;-87
2022/06/11 10:15:04;;;;;;;8.73;4.38;;;23.90;56.40;;;;;;5076094;28;20067;-88
2022/06/11 10:17:40;;;;;;;8.75;3.92;;;24.10;55.80;;;;;;5079935;28;20051;-84
2022/06/11 10:20:18;;;;;;;7.80;4.35;;;24.20;55.00;;;;;;5079308;28;20031;-86
2022/06/11 10:22:52;;;;;;;5.75;4.35;;;24.30;53.50;;;;;;5086436;28;20024;-86
2022/06/11 10:25:48;;;;;;;6.30;3.97;;;24.30;52.70;;;;;;5080523;28;20023;-87
2022/06/11 10:28:24;;;;;;;5.57;3.40;;;24.20;53.20;;;;;;5099484;28;20028;-87
2022/06/11 10:30:57;;;;;;;8.60;3.60;;;24.30;53.40;;;;;;5100907;28;20012;-89
2022/06/11 10:33:47;;;;;;;6.93;3.30;;;24.30;53.10;;;;;;5117498;28;20024;-87
2022/06/11 10:36:26;;;;;;;6.22;3.97;;;24.50;53.90;;;;;;5090581;28;20020;-89
2022/06/11 10:39:09;;;;;;;7.18;3.72;;;24.70;52.60;;;;;;5099367;28;20047;-86
2022/06/11 10:42:00;;;;;;;10.95;4.43;;;24.80;52.60;;;;;;5081561;28;20390;-85
2022/06/11 10:44:45;;;;;;;6.53;4.13;;;24.90;52.40;;;;;;5099908;28;20045;-87
2022/06/11 10:47:35;;;;;;;7.65;3.40;;;24.90;51.90;;;;;;5072534;28;20047;-86
2022/06/11 10:50:11;;;;;;;9.32;4.30;;;24.80;52.20;;;;;;5111024;28;20117;-89
2022/06/11 10:53:07;;;;;;;13.10;4.95;;;24.70;53.00;;;;;;5121151;28;20473;-89
2022/06/11 10:55:44;;;;;;;8.02;5.07;;;24.90;52.90;;;;;;5107544;28;20027;-90
2022/06/11 10:58:39;;;;;;;;;;;24.80;52.70;;;;;;5105160;28;20088;-83
2022/06/11 11:01:24;;;;;;;5.38;4.03;;;24.80;52.60;;;;;;5071527;28;19916;-84
2022/06/11 11:04:05;;;;;;;9.35;5.65;;;24.70;52.70;;;;;;5083122;28;20028;-84
2022/06/11 11:06:34;;;;;;;10.70;6.57;;;24.70;55.10;;;;;;5098160;28;20028;-85
2022/06/11 11:09:24;;;;;;;10.98;5.38;;;24.50;56.90;;;;;;5101603;28;20035;-84
2022/06/11 11:11:57;;;;;;;8.23;6.00;;;24.10;57.40;;;;;;5083156;28;20020;-87
2022/06/11 11:14:32;;;;;;;8.93;5.65;;;23.90;58.30;;;;;;5104177;28;20477;-88
2022/06/11 11:17:04;;;;;;;8.55;6.38;;;23.80;58.60;;;;;;5086828;28;20020;-87
2022/06/11 11:19:33;;;;;;;9.07;5.72;;;23.60;58.90;;;;;;5112434;28;20032;-84
2022/06/11 11:22:10;;;;;;;9.52;5.68;;;23.50;59.50;;;;;;5107241;28;20012;-89
2022/06/11 11:24:43;;;;;;;8.60;5.35;;;23.40;59.20;;;;;;5124370;28;20161;-86
2022/06/11 11:27:30;;;;;;;11.90;6.50;;;23.30;58.80;;;;;;5085756;28;20024;-86
2022/06/11 11:30:22;;;;;;;9.27;4.80;;;23.40;59.40;;;;;;5100224;28;20020;-83
2022/06/11 11:32:48;;;;;;;10.40;4.88;;;23.70;57.30;;;;;;5092269;28;20028;-86
2022/06/11 11:35:18;;;;;;;7.53;4.63;;;24.00;56.90;;;;;;5087922;28;20024;-90
2022/06/11 11:37:46;;;;;;;6.20;4.35;;;24.50;55.70;;;;;;5088429;28;20024;-88
2022/06/11 11:40:36;;;;;;;7.15;5.43;;;24.70;54.20;;;;;;5102624;28;20077;-86
2022/06/11 11:43:10;;;;;;;5.75;4.43;;;24.60;53.90;;;;;;5080159;28;20024;-82
2022/06/11 11:46:00;;;;;;;6.25;3.67;;;24.50;54.40;;;;;;5103298;28;20042;-88
2022/06/11 11:48:28;;;;;;;12.02;5.70;;;24.40;54.60;;;;;;5103861;28;20114;-89
2022/06/11 11:51:00;;;;;;;8.30;4.82;;;24.30;55.40;;;;;;5102407;28;20068;-90
2022/06/11 11:53:30;;;;;;;12.80;6.07;;;24.20;55.60;;;;;;5123350;27;20397;-89
2022/06/11 11:56:00;;;;;;;12.10;6.00;;;24.10;55.90;;;;;;5109017;28;20028;-87
2022/06/11 11:58:40;;;;;;;12.07;6.28;;;24.00;56.50;;;;;;5096378;28;20028;-85
2022/06/11 12:01:14;;;;;;;12.05;6.10;;;23.80;61.10;;;;;;5088962;28;20024;-86
2022/06/11 12:03:45;;;;;;;14.80;6.07;;;23.80;58.60;;;;;;5101803;28;20035;-86
2022/06/11 12:06:17;;;;;;;8.43;6.35;;;23.70;57.30;;;;;;5097645;28;20070;-85
2022/06/11 12:08:52;;;;;;;8.20;5.90;;;23.70;57.80;;;;;;5094563;28;20786;-86
2022/06/11 12:11:24;;;;;;;11.88;5.57;;;23.50;57.80;;;;;;5069064;28;20036;-88
2022/06/11 12:13:53;;;;;;;9.40;6.30;;;23.40;58.30;;;;;;5097150;28;20016;-85
2022/06/11 12:16:22;;;;;;;14.73;6.05;;;;;;;;;;5100701;28;20024;-87
2022/06/11 12:19:10;;;;;;;7.30;5.90;;;23.30;58.40;;;;;;5121229;28;20083;-89
2022/06/11 12:21:42;;;;;;;11.07;6.45;;;23.30;59.40;;;;;;5107675;28;20102;-88
2022/06/11 12:24:24;;;;;;;12.45;6.75;;;23.30;59.20;;;;;;5085682;28;20028;-88
2022/06/11 12:26:56;;;;;;;15.88;7.18;;;23.60;58.80;;;;;;5103311;28;20389;-84
2022/06/11 12:29:28;;;;;;;8.20;6.35;;;23.70;59.10;;;;;;5120364;28;20028;-87
2022/06/11 12:32:00;;;;;;;12.80;6.38;;;23.60;58.70;;;;;;5105468;28;20027;-89
2022/06/11 12:34:29;;;;;;;8.50;6.25;;;23.60;58.80;;;;;;5088978;28;20047;-87
2022/06/11 12:37:19;;;;;;;16.02;7.05;;;23.70;58.70;;;;;;5107079;28;20023;-87
2022/06/11 12:40:06;;;;;;;11.45;7.68;;;23.80;58.70;;;;;;5126367;28;20409;-89
2022/06/11 12:42:36;;;;;;;7.50;6.75;;;23.90;58.30;;;;;;5086102;28;20020;-90
2022/06/11 12:45:26;;;;;;;14.27;7.72;;;24.00;58.00;;;;;;5083926;28;20031;-88
2022/06/11 12:47:55;;;;;;;12.40;7.13;;;24.00;57.70;;;;;;5091440;28;20083;-88
2022/06/11 12:51:01;;;;;;;8.65;6.45;;;23.80;57.90;;;;;;5128917;28;20039;-90
2022/06/11 12:53:51;;;;;;;14.38;7.22;;;23.70;58.10;;;;;;5129540;28;20027;-88
2022/06/11 12:56:41;;;;;;;9.88;6.47;;;23.50;58.40;;;;;;5097154;28;20039;-90
2022/06/11 12:59:28;;;;;;;14.07;6.47;;;23.40;58.80;;;;;;5099923;28;20051;-89
2022/06/11 13:02:01;;;;;;;12.27;6.70;;;23.40;58.90;;;;;;5090738;28;20012;-90
2022/06/11 13:04:54;;;;;;;8.98;6.47;;;23.50;58.50;;;;;;5097643;28;20032;-88
2022/06/11 13:08:01;;;;;;;9.75;6.35;;;23.70;58.60;;;;;;5093266;28;20054;-87
2022/06/11 13:10:36;;;;;;;12.32;6.22;;;23.90;57.60;;;;;;5088283;28;20047;-86
2022/06/11 13:13:14;;;;;;;14.23;6.18;;;24.10;56.70;;;;;;5096463;28;20036;-89
2022/06/11 13:15:56;;;;;;;10.48;6.68;;;24.30;56.70;;;;;;5112246;28;20064;-91
2022/06/11 13:18:38;;;;;;;10.15;6.45;;;24.40;56.00;;;;;;5076735;28;20081;-86